Warren, Idaho
Current Conditions -  °F | °C
As of 2:51 AM on Thursday 23 Oct 2014 (Local Time) from KMYL Reporting Station
Light Rain Light Rain  
Wind Chill: 39°   Ceiling: 2300
Heat Index: 43°   Visibility: 10mi
Dew Point: 41°   Wind: 7mph
Humidity: 93%   Direction: 180°S
Pressure: 30.04"   Gusts: NA
Location:  45.26°N, 115.68°W
Report Text: KMYL 230851Z AUTO 18006KT 10SM -RA BKN023 OVC028 06/05 A3004 RMK AO2 SLP161 P0004 60009 T00610050 58001
Loading
Personal Weather Stations






























Interactive Weather Map
Tropical Storm Tracking
New forecast layout! Learn more

10-Day Weather Forecast

Advertisements
Track Severe Weather on mobile